sensor_id;sensor_type;location;lat;lon;timestamp;P1;durP1;ratioP1;P2;durP2;ratioP2
12780;SDS011;6454;43.304;24.344;2023-05-10T00:01:26;9.65;;;8.65;;
12780;SDS011;6454;43.304;24.344;2023-05-10T00:03:53;10.77;;;8.73;;
12780;SDS011;6454;43.304;24.344;2023-05-10T00:06:20;9.45;;;8.45;;
12780;SDS011;6454;43.304;24.344;2023-05-10T00:08:47;10.27;;;8.18;;
12780;SDS011;6454;43.304;24.344;2023-05-10T00:11:13;9.80;;;8.02;;
12780;SDS011;6454;43.304;24.344;2023-05-10T00:13:42;10.57;;;8.07;;
12780;SDS011;6454;43.304;24.344;2023-05-10T00:16:08;10.23;;;7.55;;
12780;SDS011;6454;43.304;24.344;2023-05-10T00:18:37;8.07;;;7.32;;
12780;SDS011;6454;43.304;24.344;2023-05-10T00:21:04;8.68;;;7.70;;
12780;SDS011;6454;43.304;24.344;2023-05-10T00:23:31;9.73;;;8.05;;
12780;SDS011;6454;43.304;24.344;2023-05-10T00:25:58;10.30;;;7.35;;
12780;SDS011;6454;43.304;24.344;2023-05-10T00:28:25;7.60;;;6.90;;
12780;SDS011;6454;43.304;24.344;2023-05-10T00:30:55;9.23;;;7.32;;
12780;SDS011;6454;43.304;24.344;2023-05-10T00:33:21;7.97;;;7.18;;
12780;SDS011;6454;43.304;24.344;2023-05-10T00:35:48;10.93;;;7.32;;
12780;SDS011;6454;43.304;24.344;2023-05-10T00:38:15;10.20;;;7.13;;
12780;SDS011;6454;43.304;24.344;2023-05-10T00:40:42;7.53;;;6.75;;
12780;SDS011;6454;43.304;24.344;2023-05-10T00:43:09;10.05;;;7.10;;
12780;SDS011;6454;43.304;24.344;2023-05-10T00:45:36;7.80;;;7.00;;
12780;SDS011;6454;43.304;24.344;2023-05-10T00:48:05;7.63;;;6.93;;
12780;SDS011;6454;43.304;24.344;2023-05-10T00:50:32;9.85;;;7.05;;
12780;SDS011;6454;43.304;24.344;2023-05-10T00:52:59;8.13;;;7.32;;
12780;SDS011;6454;43.304;24.344;2023-05-10T00:55:27;10.00;;;7.50;;
12780;SDS011;6454;43.304;24.344;2023-05-10T00:57:54;9.15;;;8.25;;
12780;SDS011;6454;43.304;24.344;2023-05-10T01:00:21;12.55;;;10.70;;
12780;SDS011;6454;43.304;24.344;2023-05-10T01:02:48;11.30;;;10.20;;
12780;SDS011;6454;43.304;24.344;2023-05-10T01:05:17;8.98;;;7.30;;
12780;SDS011;6454;43.304;24.344;2023-05-10T01:07:43;8.70;;;7.43;;
12780;SDS011;6454;43.304;24.344;2023-05-10T01:10:10;8.68;;;6.68;;
12780;SDS011;6454;43.304;24.344;2023-05-10T01:12:38;7.55;;;6.50;;
12780;SDS011;6454;43.304;24.344;2023-05-10T01:15:07;9.40;;;6.60;;
12780;SDS011;6454;43.304;24.344;2023-05-10T01:17:37;8.52;;;6.80;;
12780;SDS011;6454;43.304;24.344;2023-05-10T01:20:07;7.80;;;7.10;;
12780;SDS011;6454;43.304;24.344;2023-05-10T01:22:43;7.10;;;6.50;;
12780;SDS011;6454;43.304;24.344;2023-05-10T01:25:32;7.28;;;6.47;;
12780;SDS011;6454;43.304;24.344;2023-05-10T01:28:32;7.80;;;6.97;;
12780;SDS011;6454;43.304;24.344;2023-05-10T01:34:02;8.98;;;6.88;;
12780;SDS011;6454;43.304;24.344;2023-05-10T01:36:35;7.97;;;7.18;;
12780;SDS011;6454;43.304;24.344;2023-05-10T01:39:13;8.52;;;7.38;;
12780;SDS011;6454;43.304;24.344;2023-05-10T01:41:45;8.63;;;7.70;;
12780;SDS011;6454;43.304;24.344;2023-05-10T01:44:18;9.43;;;7.82;;
12780;SDS011;6454;43.304;24.344;2023-05-10T01:46:52;10.63;;;8.25;;
12780;SDS011;6454;43.304;24.344;2023-05-10T01:49:30;10.32;;;8.40;;
12780;SDS011;6454;43.304;24.344;2023-05-10T01:52:04;9.43;;;7.85;;
12780;SDS011;6454;43.304;24.344;2023-05-10T01:54:34;8.80;;;7.90;;
12780;SDS011;6454;43.304;24.344;2023-05-10T01:57:05;11.93;;;8.65;;
12780;SDS011;6454;43.304;24.344;2023-05-10T01:59:35;9.38;;;8.05;;
12780;SDS011;6454;43.304;24.344;2023-05-10T02:02:06;10.68;;;7.75;;
12780;SDS011;6454;43.304;24.344;2023-05-10T02:04:38;9.23;;;8.32;;
12780;SDS011;6454;43.304;24.344;2023-05-10T02:07:06;8.57;;;7.78;;
12780;SDS011;6454;43.304;24.344;2023-05-10T02:09:34;8.88;;;7.85;;
12780;SDS011;6454;43.304;24.344;2023-05-10T02:12:03;9.88;;;8.57;;
12780;SDS011;6454;43.304;24.344;2023-05-10T02:14:34;11.00;;;8.63;;
12780;SDS011;6454;43.304;24.344;2023-05-10T02:17:04;8.85;;;7.88;;
12780;SDS011;6454;43.304;24.344;2023-05-10T02:19:32;10.77;;;8.30;;
12780;SDS011;6454;43.304;24.344;2023-05-10T02:22:03;12.65;;;9.00;;
12780;SDS011;6454;43.304;24.344;2023-05-10T02:24:31;9.65;;;8.70;;
12780;SDS011;6454;43.304;24.344;2023-05-10T02:27:00;11.75;;;9.05;;
12780;SDS011;6454;43.304;24.344;2023-05-10T02:29:29;11.73;;;8.57;;
12780;SDS011;6454;43.304;24.344;2023-05-10T02:31:57;8.27;;;7.55;;
12780;SDS011;6454;43.304;24.344;2023-05-10T02:34:25;11.73;;;7.78;;
12780;SDS011;6454;43.304;24.344;2023-05-10T02:36:53;9.65;;;8.40;;
12780;SDS011;6454;43.304;24.344;2023-05-10T02:39:23;8.25;;;7.45;;
12780;SDS011;6454;43.304;24.344;2023-05-10T02:41:53;10.13;;;7.97;;
12780;SDS011;6454;43.304;24.344;2023-05-10T02:44:20;11.25;;;8.85;;
12780;SDS011;6454;43.304;24.344;2023-05-10T02:46:49;10.48;;;8.95;;
12780;SDS011;6454;43.304;24.344;2023-05-10T02:49:17;9.70;;;8.48;;
12780;SDS011;6454;43.304;24.344;2023-05-10T02:51:47;8.98;;;7.78;;
12780;SDS011;6454;43.304;24.344;2023-05-10T02:54:18;12.07;;;8.32;;
12780;SDS011;6454;43.304;24.344;2023-05-10T02:56:51;12.43;;;7.75;;
12780;SDS011;6454;43.304;24.344;2023-05-10T02:59:24;8.43;;;7.63;;
12780;SDS011;6454;43.304;24.344;2023-05-10T03:01:51;10.05;;;8.65;;
12780;SDS011;6454;43.304;24.344;2023-05-10T03:04:18;9.50;;;8.50;;
12780;SDS011;6454;43.304;24.344;2023-05-10T03:06:45;10.13;;;8.07;;
12780;SDS011;6454;43.304;24.344;2023-05-10T03:09:12;8.45;;;7.68;;
12780;SDS011;6454;43.304;24.344;2023-05-10T03:11:43;9.20;;;8.27;;
12780;SDS011;6454;43.304;24.344;2023-05-10T03:14:25;8.93;;;8.00;;
12780;SDS011;6454;43.304;24.344;2023-05-10T03:17:04;9.45;;;8.40;;
12780;SDS011;6454;43.304;24.344;2023-05-10T03:19:37;12.85;;;8.35;;
12780;SDS011;6454;43.304;24.344;2023-05-10T03:22:10;15.13;;;8.10;;
12780;SDS011;6454;43.304;24.344;2023-05-10T03:24:39;9.82;;;8.82;;
12780;SDS011;6454;43.304;24.344;2023-05-10T03:27:08;10.30;;;8.90;;
12780;SDS011;6454;43.304;24.344;2023-05-10T03:29:37;9.25;;;8.32;;
12780;SDS011;6454;43.304;24.344;2023-05-10T03:32:05;9.05;;;7.90;;
12780;SDS011;6454;43.304;24.344;2023-05-10T03:34:32;9.60;;;7.78;;
12780;SDS011;6454;43.304;24.344;2023-05-10T03:36:59;8.90;;;7.30;;
12780;SDS011;6454;43.304;24.344;2023-05-10T03:39:26;7.75;;;6.95;;
12780;SDS011;6454;43.304;24.344;2023-05-10T03:41:52;7.40;;;6.70;;
12780;SDS011;6454;43.304;24.344;2023-05-10T03:44:19;7.75;;;6.40;;
12780;SDS011;6454;43.304;24.344;2023-05-10T03:46:47;10.57;;;6.85;;
12780;SDS011;6454;43.304;24.344;2023-05-10T03:49:14;7.53;;;6.72;;
12780;SDS011;6454;43.304;24.344;2023-05-10T03:51:41;9.07;;;6.78;;
12780;SDS011;6454;43.304;24.344;2023-05-10T03:54:08;10.20;;;6.78;;
12780;SDS011;6454;43.304;24.344;2023-05-10T03:56:34;7.35;;;6.22;;
12780;SDS011;6454;43.304;24.344;2023-05-10T03:59:01;9.30;;;6.65;;
12780;SDS011;6454;43.304;24.344;2023-05-10T04:01:32;8.25;;;6.60;;
12780;SDS011;6454;43.304;24.344;2023-05-10T04:04:00;8.57;;;6.60;;
12780;SDS011;6454;43.304;24.344;2023-05-10T04:06:27;7.45;;;5.88;;
12780;SDS011;6454;43.304;24.344;2023-05-10T04:08:54;9.77;;;6.10;;
12780;SDS011;6454;43.304;24.344;2023-05-10T04:11:21;7.95;;;5.82;;
12780;SDS011;6454;43.304;24.344;2023-05-10T04:13:49;8.45;;;6.25;;
12780;SDS011;6454;43.304;24.344;2023-05-10T04:16:16;9.27;;;5.68;;
12780;SDS011;6454;43.304;24.344;2023-05-10T04:18:43;6.90;;;5.63;;
12780;SDS011;6454;43.304;24.344;2023-05-10T04:21:14;8.02;;;5.25;;
12780;SDS011;6454;43.304;24.344;2023-05-10T04:23:41;6.47;;;5.13;;
12780;SDS011;6454;43.304;24.344;2023-05-10T04:26:08;7.63;;;5.38;;
12780;SDS011;6454;43.304;24.344;2023-05-10T04:28:35;9.23;;;5.38;;
12780;SDS011;6454;43.304;24.344;2023-05-10T04:31:02;10.43;;;4.72;;
12780;SDS011;6454;43.304;24.344;2023-05-10T04:33:29;7.47;;;5.32;;
12780;SDS011;6454;43.304;24.344;2023-05-10T04:35:56;5.70;;;4.97;;
12780;SDS011;6454;43.304;24.344;2023-05-10T04:38:24;5.13;;;4.63;;
12780;SDS011;6454;43.304;24.344;2023-05-10T04:40:52;7.20;;;5.13;;
12780;SDS011;6454;43.304;24.344;2023-05-10T04:43:19;6.25;;;4.90;;
12780;SDS011;6454;43.304;24.344;2023-05-10T04:45:46;6.88;;;5.50;;
12780;SDS011;6454;43.304;24.344;2023-05-10T04:48:12;6.32;;;4.82;;
12780;SDS011;6454;43.304;24.344;2023-05-10T04:50:39;5.40;;;4.32;;
12780;SDS011;6454;43.304;24.344;2023-05-10T04:53:06;6.97;;;5.40;;
12780;SDS011;6454;43.304;24.344;2023-05-10T04:55:34;8.20;;;5.00;;
12780;SDS011;6454;43.304;24.344;2023-05-10T04:58:02;6.05;;;5.00;;
12780;SDS011;6454;43.304;24.344;2023-05-10T05:00:28;5.07;;;4.57;;
12780;SDS011;6454;43.304;24.344;2023-05-10T05:02:56;10.90;;;4.97;;
12780;SDS011;6454;43.304;24.344;2023-05-10T05:05:23;7.65;;;5.10;;
12780;SDS011;6454;43.304;24.344;2023-05-10T05:07:50;5.55;;;4.90;;
12780;SDS011;6454;43.304;24.344;2023-05-10T05:10:17;5.13;;;4.28;;
12780;SDS011;6454;43.304;24.344;2023-05-10T05:12:45;4.85;;;4.32;;
12780;SDS011;6454;43.304;24.344;2023-05-10T05:15:12;5.57;;;4.68;;
12780;SDS011;6454;43.304;24.344;2023-05-10T05:17:41;7.28;;;4.30;;
12780;SDS011;6454;43.304;24.344;2023-05-10T05:20:08;6.72;;;4.47;;
12780;SDS011;6454;43.304;24.344;2023-05-10T05:22:36;4.30;;;3.80;;
12780;SDS011;6454;43.304;24.344;2023-05-10T05:25:03;6.15;;;3.97;;
12780;SDS011;6454;43.304;24.344;2023-05-10T05:27:31;5.00;;;4.45;;
12780;SDS011;6454;43.304;24.344;2023-05-10T05:29:59;8.65;;;4.15;;
12780;SDS011;6454;43.304;24.344;2023-05-10T05:32:26;5.70;;;4.70;;
12780;SDS011;6454;43.304;24.344;2023-05-10T05:34:53;4.63;;;4.22;;
12780;SDS011;6454;43.304;24.344;2023-05-10T05:37:20;6.40;;;4.05;;
12780;SDS011;6454;43.304;24.344;2023-05-10T05:39:47;6.03;;;3.80;;
12780;SDS011;6454;43.304;24.344;2023-05-10T05:42:14;4.68;;;3.80;;
12780;SDS011;6454;43.304;24.344;2023-05-10T05:44:43;5.53;;;4.25;;
12780;SDS011;6454;43.304;24.344;2023-05-10T05:47:12;7.63;;;4.13;;
12780;SDS011;6454;43.304;24.344;2023-05-10T05:49:38;7.53;;;3.92;;
12780;SDS011;6454;43.304;24.344;2023-05-10T05:52:05;6.55;;;3.70;;
12780;SDS011;6454;43.304;24.344;2023-05-10T05:54:32;5.93;;;3.90;;
12780;SDS011;6454;43.304;24.344;2023-05-10T05:56:59;5.85;;;3.83;;
12780;SDS011;6454;43.304;24.344;2023-05-10T05:59:26;5.90;;;3.90;;
12780;SDS011;6454;43.304;24.344;2023-05-10T06:01:53;10.48;;;4.20;;
12780;SDS011;6454;43.304;24.344;2023-05-10T06:04:22;7.70;;;4.30;;
12780;SDS011;6454;43.304;24.344;2023-05-10T06:06:49;4.78;;;3.53;;
12780;SDS011;6454;43.304;24.344;2023-05-10T06:09:15;5.40;;;3.88;;
12780;SDS011;6454;43.304;24.344;2023-05-10T06:11:42;4.55;;;4.10;;
12780;SDS011;6454;43.304;24.344;2023-05-10T06:14:09;8.60;;;4.35;;
12780;SDS011;6454;43.304;24.344;2023-05-10T06:16:36;6.13;;;3.42;;
12780;SDS011;6454;43.304;24.344;2023-05-10T06:19:03;5.07;;;3.80;;
12780;SDS011;6454;43.304;24.344;2023-05-10T06:21:31;6.13;;;3.50;;
12780;SDS011;6454;43.304;24.344;2023-05-10T06:23:58;9.25;;;3.28;;
12780;SDS011;6454;43.304;24.344;2023-05-10T06:26:25;4.95;;;3.60;;
12780;SDS011;6454;43.304;24.344;2023-05-10T06:28:52;3.78;;;3.42;;
12780;SDS011;6454;43.304;24.344;2023-05-10T06:31:18;4.60;;;3.30;;
12780;SDS011;6454;43.304;24.344;2023-05-10T06:33:46;5.03;;;3.90;;
12780;SDS011;6454;43.304;24.344;2023-05-10T06:36:12;5.68;;;3.03;;
12780;SDS011;6454;43.304;24.344;2023-05-10T06:38:40;5.28;;;3.22;;
12780;SDS011;6454;43.304;24.344;2023-05-10T06:41:07;6.88;;;3.63;;
12780;SDS011;6454;43.304;24.344;2023-05-10T06:43:34;4.97;;;3.30;;
12780;SDS011;6454;43.304;24.344;2023-05-10T06:46:04;5.05;;;3.17;;
12780;SDS011;6454;43.304;24.344;2023-05-10T06:48:31;5.05;;;3.42;;
12780;SDS011;6454;43.304;24.344;2023-05-10T06:50:59;3.97;;;2.70;;
12780;SDS011;6454;43.304;24.344;2023-05-10T06:53:25;5.47;;;2.97;;
12780;SDS011;6454;43.304;24.344;2023-05-10T06:55:54;3.38;;;3.00;;
12780;SDS011;6454;43.304;24.344;2023-05-10T06:58:20;3.85;;;3.22;;
12780;SDS011;6454;43.304;24.344;2023-05-10T07:00:48;5.07;;;3.42;;
12780;SDS011;6454;43.304;24.344;2023-05-10T07:03:15;8.68;;;3.20;;
12780;SDS011;6454;43.304;24.344;2023-05-10T07:05:42;4.43;;;3.10;;
12780;SDS011;6454;43.304;24.344;2023-05-10T07:08:08;5.38;;;2.90;;
12780;SDS011;6454;43.304;24.344;2023-05-10T07:10:35;4.47;;;3.00;;
12780;SDS011;6454;43.304;24.344;2023-05-10T07:13:03;6.40;;;3.40;;
12780;SDS011;6454;43.304;24.344;2023-05-10T07:15:30;5.07;;;3.08;;
12780;SDS011;6454;43.304;24.344;2023-05-10T07:17:58;4.97;;;3.45;;
12780;SDS011;6454;43.304;24.344;2023-05-10T07:20:25;3.53;;;3.22;;
12780;SDS011;6454;43.304;24.344;2023-05-10T07:22:52;5.18;;;3.20;;
12780;SDS011;6454;43.304;24.344;2023-05-10T07:25:19;6.13;;;3.10;;
12780;SDS011;6454;43.304;24.344;2023-05-10T07:27:46;3.45;;;2.90;;
12780;SDS011;6454;43.304;24.344;2023-05-10T07:30:15;3.58;;;3.28;;
12780;SDS011;6454;43.304;24.344;2023-05-10T07:32:42;4.40;;;2.80;;
12780;SDS011;6454;43.304;24.344;2023-05-10T07:35:08;3.70;;;3.03;;
12780;SDS011;6454;43.304;24.344;2023-05-10T07:37:35;5.00;;;3.20;;
12780;SDS011;6454;43.304;24.344;2023-05-10T07:40:02;3.67;;;3.20;;
12780;SDS011;6454;43.304;24.344;2023-05-10T07:42:29;4.20;;;2.95;;
12780;SDS011;6454;43.304;24.344;2023-05-10T07:44:56;6.22;;;3.05;;
12780;SDS011;6454;43.304;24.344;2023-05-10T07:47:25;6.00;;;2.90;;
12780;SDS011;6454;43.304;24.344;2023-05-10T07:49:51;4.00;;;3.20;;
12780;SDS011;6454;43.304;24.344;2023-05-10T07:52:18;4.18;;;3.00;;
12780;SDS011;6454;43.304;24.344;2023-05-10T07:54:45;4.65;;;3.30;;
12780;SDS011;6454;43.304;24.344;2023-05-10T07:57:12;5.88;;;3.25;;
12780;SDS011;6454;43.304;24.344;2023-05-10T07:59:42;4.93;;;3.17;;
12780;SDS011;6454;43.304;24.344;2023-05-10T08:02:09;5.30;;;2.70;;
12780;SDS011;6454;43.304;24.344;2023-05-10T08:04:37;3.42;;;3.13;;
12780;SDS011;6454;43.304;24.344;2023-05-10T08:07:04;5.53;;;3.33;;
12780;SDS011;6454;43.304;24.344;2023-05-10T08:09:31;5.60;;;3.15;;
12780;SDS011;6454;43.304;24.344;2023-05-10T08:11:58;6.03;;;3.40;;
12780;SDS011;6454;43.304;24.344;2023-05-10T08:14:25;4.05;;;3.15;;
12780;SDS011;6454;43.304;24.344;2023-05-10T08:16:52;3.35;;;2.78;;
12780;SDS011;6454;43.304;24.344;2023-05-10T08:19:19;6.45;;;2.90;;
12780;SDS011;6454;43.304;24.344;2023-05-10T08:21:47;5.18;;;2.80;;
12780;SDS011;6454;43.304;24.344;2023-05-10T08:24:15;6.80;;;3.15;;
12780;SDS011;6454;43.304;24.344;2023-05-10T08:26:41;3.42;;;2.50;;
12780;SDS011;6454;43.304;24.344;2023-05-10T08:29:08;3.58;;;2.83;;
12780;SDS011;6454;43.304;24.344;2023-05-10T08:31:35;5.75;;;2.60;;
12780;SDS011;6454;43.304;24.344;2023-05-10T08:34:02;2.97;;;2.67;;
12780;SDS011;6454;43.304;24.344;2023-05-10T08:36:29;2.83;;;2.35;;
12780;SDS011;6454;43.304;24.344;2023-05-10T08:38:58;3.95;;;2.30;;
12780;SDS011;6454;43.304;24.344;2023-05-10T08:41:25;4.10;;;2.50;;
12780;SDS011;6454;43.304;24.344;2023-05-10T08:43:52;2.83;;;2.20;;
12780;SDS011;6454;43.304;24.344;2023-05-10T08:46:21;5.85;;;2.33;;
12780;SDS011;6454;43.304;24.344;2023-05-10T08:48:49;5.35;;;2.60;;
12780;SDS011;6454;43.304;24.344;2023-05-10T08:51:19;2.50;;;2.30;;
12780;SDS011;6454;43.304;24.344;2023-05-10T08:53:48;3.05;;;2.20;;
12780;SDS011;6454;43.304;24.344;2023-05-10T08:56:17;4.15;;;2.50;;
12780;SDS011;6454;43.304;24.344;2023-05-10T08:58:45;3.55;;;2.50;;
12780;SDS011;6454;43.304;24.344;2023-05-10T09:01:12;5.72;;;2.33;;
12780;SDS011;6454;43.304;24.344;2023-05-10T09:03:42;2.25;;;2.08;;
12780;SDS011;6454;43.304;24.344;2023-05-10T09:06:09;2.85;;;2.00;;
12780;SDS011;6454;43.304;24.344;2023-05-10T09:08:38;5.47;;;2.85;;
12780;SDS011;6454;43.304;24.344;2023-05-10T09:11:07;5.68;;;2.55;;
12780;SDS011;6454;43.304;24.344;2023-05-10T09:13:36;4.55;;;2.40;;
12780;SDS011;6454;43.304;24.344;2023-05-10T09:16:04;3.25;;;2.20;;
12780;SDS011;6454;43.304;24.344;2023-05-10T09:18:31;6.30;;;2.72;;
12780;SDS011;6454;43.304;24.344;2023-05-10T09:20:58;3.80;;;2.28;;
12780;SDS011;6454;43.304;24.344;2023-05-10T09:23:25;3.17;;;2.42;;
12780;SDS011;6454;43.304;24.344;2023-05-10T09:26:03;2.40;;;2.20;;
12780;SDS011;6454;43.304;24.344;2023-05-10T09:28:31;4.00;;;2.42;;
12780;SDS011;6454;43.304;24.344;2023-05-10T09:31:00;2.35;;;2.15;;
12780;SDS011;6454;43.304;24.344;2023-05-10T09:33:26;3.33;;;2.05;;
12780;SDS011;6454;43.304;24.344;2023-05-10T09:35:53;3.20;;;2.10;;
12780;SDS011;6454;43.304;24.344;2023-05-10T09:38:20;4.85;;;2.33;;
12780;SDS011;6454;43.304;24.344;2023-05-10T09:40:50;5.30;;;2.55;;
12780;SDS011;6454;43.304;24.344;2023-05-10T09:43:20;3.38;;;2.50;;
12780;SDS011;6454;43.304;24.344;2023-05-10T09:45:47;3.25;;;2.70;;
12780;SDS011;6454;43.304;24.344;2023-05-10T09:48:17;4.75;;;2.55;;
12780;SDS011;6454;43.304;24.344;2023-05-10T09:50:43;2.42;;;2.20;;
12780;SDS011;6454;43.304;24.344;2023-05-10T09:53:10;5.30;;;2.67;;
12780;SDS011;6454;43.304;24.344;2023-05-10T09:55:41;2.60;;;2.40;;
12780;SDS011;6454;43.304;24.344;2023-05-10T09:58:09;3.83;;;2.40;;
12780;SDS011;6454;43.304;24.344;2023-05-10T10:00:40;3.40;;;2.70;;
12780;SDS011;6454;43.304;24.344;2023-05-10T10:03:11;3.63;;;2.70;;
12780;SDS011;6454;43.304;24.344;2023-05-10T10:05:42;4.18;;;2.40;;
12780;SDS011;6454;43.304;24.344;2023-05-10T10:08:10;3.70;;;2.40;;
12780;SDS011;6454;43.304;24.344;2023-05-10T10:10:38;4.93;;;2.40;;
12780;SDS011;6454;43.304;24.344;2023-05-10T10:13:06;5.72;;;2.33;;
12780;SDS011;6454;43.304;24.344;2023-05-10T13:11:05;2.58;;;2.20;;
12780;SDS011;6454;43.304;24.344;2023-05-10T13:13:32;1.95;;;1.85;;
12780;SDS011;6454;43.304;24.344;2023-05-10T13:15:59;3.38;;;2.13;;
12780;SDS011;6454;43.304;24.344;2023-05-10T13:18:26;5.47;;;2.15;;
12780;SDS011;6454;43.304;24.344;2023-05-10T13:20:53;3.78;;;2.20;;
12780;SDS011;6454;43.304;24.344;2023-05-10T13:23:20;3.28;;;1.85;;
12780;SDS011;6454;43.304;24.344;2023-05-10T13:25:47;5.22;;;2.10;;
12780;SDS011;6454;43.304;24.344;2023-05-10T13:28:16;4.00;;;2.20;;
12780;SDS011;6454;43.304;24.344;2023-05-10T13:30:42;3.28;;;2.17;;
12780;SDS011;6454;43.304;24.344;2023-05-10T13:33:09;3.53;;;2.25;;
12780;SDS011;6454;43.304;24.344;2023-05-10T13:35:36;3.28;;;2.22;;
12780;SDS011;6454;43.304;24.344;2023-05-10T13:38:03;4.22;;;2.42;;
12780;SDS011;6454;43.304;24.344;2023-05-10T13:40:32;7.53;;;2.22;;
12780;SDS011;6454;43.304;24.344;2023-05-10T13:42:59;4.47;;;2.10;;
12780;SDS011;6454;43.304;24.344;2023-05-10T13:45:28;4.50;;;1.77;;
12780;SDS011;6454;43.304;24.344;2023-05-10T13:47:55;3.25;;;2.05;;
12780;SDS011;6454;43.304;24.344;2023-05-10T13:50:22;2.65;;;2.00;;
12780;SDS011;6454;43.304;24.344;2023-05-10T13:52:49;3.53;;;2.33;;
12780;SDS011;6454;43.304;24.344;2023-05-10T13:55:16;3.83;;;2.30;;
12780;SDS011;6454;43.304;24.344;2023-05-10T13:57:42;3.25;;;2.10;;
12780;SDS011;6454;43.304;24.344;2023-05-10T14:00:10;2.92;;;2.10;;
12780;SDS011;6454;43.304;24.344;2023-05-10T14:02:38;5.82;;;2.30;;
12780;SDS011;6454;43.304;24.344;2023-05-10T14:05:05;4.18;;;2.20;;
12780;SDS011;6454;43.304;24.344;2023-05-10T14:07:33;3.25;;;2.17;;
12780;SDS011;6454;43.304;24.344;2023-05-10T14:09:59;4.80;;;2.67;;
12780;SDS011;6454;43.304;24.344;2023-05-10T14:12:26;3.63;;;2.55;;
12780;SDS011;6454;43.304;24.344;2023-05-10T14:14:54;3.17;;;2.55;;
12780;SDS011;6454;43.304;24.344;2023-05-10T14:17:21;3.13;;;2.30;;
12780;SDS011;6454;43.304;24.344;2023-05-10T14:19:49;3.42;;;2.33;;
12780;SDS011;6454;43.304;24.344;2023-05-10T14:22:16;4.38;;;2.65;;
12780;SDS011;6454;43.304;24.344;2023-05-10T14:24:43;3.13;;;2.60;;
12780;SDS011;6454;43.304;24.344;2023-05-10T14:27:11;4.10;;;2.70;;
12780;SDS011;6454;43.304;24.344;2023-05-10T14:29:38;4.45;;;3.10;;
12780;SDS011;6454;43.304;24.344;2023-05-10T14:32:05;4.93;;;2.78;;
12780;SDS011;6454;43.304;24.344;2023-05-10T14:34:32;7.68;;;2.67;;
12780;SDS011;6454;43.304;24.344;2023-05-10T14:37:00;7.57;;;2.70;;
12780;SDS011;6454;43.304;24.344;2023-05-10T14:39:27;5.18;;;2.50;;
12780;SDS011;6454;43.304;24.344;2023-05-10T14:41:55;5.72;;;2.45;;
12780;SDS011;6454;43.304;24.344;2023-05-10T14:44:22;4.90;;;2.45;;
12780;SDS011;6454;43.304;24.344;2023-05-10T14:46:48;2.80;;;2.30;;
12780;SDS011;6454;43.304;24.344;2023-05-10T14:49:15;9.60;;;3.20;;
12780;SDS011;6454;43.304;24.344;2023-05-10T14:51:42;4.65;;;2.90;;
12780;SDS011;6454;43.304;24.344;2023-05-10T14:54:11;6.57;;;3.58;;
12780;SDS011;6454;43.304;24.344;2023-05-10T14:56:38;7.82;;;2.80;;
12780;SDS011;6454;43.304;24.344;2023-05-10T14:59:06;4.60;;;2.80;;
12780;SDS011;6454;43.304;24.344;2023-05-10T15:01:33;4.55;;;3.67;;
12780;SDS011;6454;43.304;24.344;2023-05-10T15:04:02;7.10;;;3.03;;
12780;SDS011;6454;43.304;24.344;2023-05-10T15:06:32;5.47;;;3.05;;
12780;SDS011;6454;43.304;24.344;2023-05-10T15:09:00;3.72;;;3.05;;
12780;SDS011;6454;43.304;24.344;2023-05-10T15:11:30;3.28;;;2.63;;
12780;SDS011;6454;43.304;24.344;2023-05-10T15:13:57;2.75;;;2.47;;
12780;SDS011;6454;43.304;24.344;2023-05-10T15:16:24;4.28;;;3.50;;
12780;SDS011;6454;43.304;24.344;2023-05-10T15:18:51;7.30;;;3.92;;
12780;SDS011;6454;43.304;24.344;2023-05-10T15:21:17;8.63;;;2.63;;
12780;SDS011;6454;43.304;24.344;2023-05-10T15:23:44;5.22;;;3.33;;
12780;SDS011;6454;43.304;24.344;2023-05-10T15:26:11;5.60;;;3.30;;
12780;SDS011;6454;43.304;24.344;2023-05-10T15:28:39;3.97;;;2.50;;
12780;SDS011;6454;43.304;24.344;2023-05-10T15:31:06;3.33;;;3.03;;
12780;SDS011;6454;43.304;24.344;2023-05-10T15:33:33;5.03;;;2.97;;
12780;SDS011;6454;43.304;24.344;2023-05-10T15:36:00;5.75;;;2.88;;
12780;SDS011;6454;43.304;24.344;2023-05-10T15:38:28;7.80;;;3.60;;
12780;SDS011;6454;43.304;24.344;2023-05-10T15:40:56;3.50;;;2.70;;
12780;SDS011;6454;43.304;24.344;2023-05-10T15:43:23;6.22;;;3.13;;
12780;SDS011;6454;43.304;24.344;2023-05-10T15:45:52;7.05;;;2.80;;
12780;SDS011;6454;43.304;24.344;2023-05-10T15:48:18;4.82;;;3.00;;
12780;SDS011;6454;43.304;24.344;2023-05-10T15:50:45;3.30;;;2.70;;
12780;SDS011;6454;43.304;24.344;2023-05-10T15:53:12;5.47;;;2.70;;
12780;SDS011;6454;43.304;24.344;2023-05-10T15:55:39;3.03;;;2.40;;
12780;SDS011;6454;43.304;24.344;2023-05-10T15:58:06;7.65;;;2.97;;
12780;SDS011;6454;43.304;24.344;2023-05-10T16:00:32;8.35;;;4.40;;
12780;SDS011;6454;43.304;24.344;2023-05-10T16:03:01;6.75;;;3.55;;
12780;SDS011;6454;43.304;24.344;2023-05-10T16:05:28;6.80;;;4.00;;
12780;SDS011;6454;43.304;24.344;2023-05-10T16:07:57;4.72;;;3.15;;
12780;SDS011;6454;43.304;24.344;2023-05-10T16:10:24;7.28;;;2.78;;
12780;SDS011;6454;43.304;24.344;2023-05-10T16:12:51;3.58;;;3.15;;
12780;SDS011;6454;43.304;24.344;2023-05-10T16:15:19;7.88;;;3.75;;
12780;SDS011;6454;43.304;24.344;2023-05-10T16:17:45;4.72;;;3.20;;
12780;SDS011;6454;43.304;24.344;2023-05-10T16:20:14;7.00;;;3.83;;
12780;SDS011;6454;43.304;24.344;2023-05-10T16:22:40;6.50;;;4.13;;
12780;SDS011;6454;43.304;24.344;2023-05-10T16:25:08;6.20;;;4.00;;
12780;SDS011;6454;43.304;24.344;2023-05-10T16:27:36;5.60;;;3.83;;
12780;SDS011;6454;43.304;24.344;2023-05-10T16:30:03;4.97;;;3.30;;
12780;SDS011;6454;43.304;24.344;2023-05-10T16:32:31;3.50;;;3.20;;
12780;SDS011;6454;43.304;24.344;2023-05-10T16:34:59;7.80;;;3.00;;
12780;SDS011;6454;43.304;24.344;2023-05-10T16:37:27;3.72;;;3.28;;
12780;SDS011;6454;43.304;24.344;2023-05-10T16:39:54;5.68;;;3.10;;
12780;SDS011;6454;43.304;24.344;2023-05-10T16:42:21;7.68;;;3.38;;
12780;SDS011;6454;43.304;24.344;2023-05-10T16:44:50;3.45;;;3.00;;
12780;SDS011;6454;43.304;24.344;2023-05-10T16:47:17;4.25;;;3.00;;
12780;SDS011;6454;43.304;24.344;2023-05-10T16:49:43;5.07;;;3.50;;
12780;SDS011;6454;43.304;24.344;2023-05-10T16:52:10;8.98;;;4.55;;
12780;SDS011;6454;43.304;24.344;2023-05-10T16:54:39;3.22;;;2.92;;
12780;SDS011;6454;43.304;24.344;2023-05-10T16:57:06;4.07;;;2.60;;
12780;SDS011;6454;43.304;24.344;2023-05-10T16:59:33;3.92;;;2.70;;
12780;SDS011;6454;43.304;24.344;2023-05-10T17:02:00;3.30;;;2.35;;
12780;SDS011;6454;43.304;24.344;2023-05-10T17:04:26;3.45;;;2.10;;
12780;SDS011;6454;43.304;24.344;2023-05-10T17:06:53;5.28;;;2.40;;
12780;SDS011;6454;43.304;24.344;2023-05-10T17:09:20;3.40;;;2.40;;
12780;SDS011;6454;43.304;24.344;2023-05-10T17:11:48;3.58;;;2.60;;
12780;SDS011;6454;43.304;24.344;2023-05-10T17:14:15;5.32;;;3.40;;
12780;SDS011;6454;43.304;24.344;2023-05-10T17:16:42;3.72;;;3.25;;
12780;SDS011;6454;43.304;24.344;2023-05-10T17:19:09;8.10;;;3.97;;
12780;SDS011;6454;43.304;24.344;2023-05-10T17:21:36;7.95;;;4.10;;
12780;SDS011;6454;43.304;24.344;2023-05-10T17:24:02;6.88;;;5.20;;
12780;SDS011;6454;43.304;24.344;2023-05-10T17:26:29;8.95;;;6.78;;
12780;SDS011;6454;43.304;24.344;2023-05-10T17:28:58;10.48;;;6.90;;
12780;SDS011;6454;43.304;24.344;2023-05-10T17:31:25;9.10;;;6.38;;
12780;SDS011;6454;43.304;24.344;2023-05-10T17:33:52;9.02;;;6.43;;
12780;SDS011;6454;43.304;24.344;2023-05-10T17:36:19;7.47;;;5.90;;
12780;SDS011;6454;43.304;24.344;2023-05-10T17:38:46;5.47;;;4.15;;
12780;SDS011;6454;43.304;24.344;2023-05-10T17:41:13;4.07;;;3.67;;
12780;SDS011;6454;43.304;24.344;2023-05-10T17:43:41;4.78;;;3.35;;
12780;SDS011;6454;43.304;24.344;2023-05-10T17:46:09;8.35;;;3.08;;
12780;SDS011;6454;43.304;24.344;2023-05-10T17:48:36;5.70;;;3.03;;